sensor_id;sensor_type;location;lat;lon;timestamp;pressure;altitude;pressure_sealevel;temperature;humidity
64211;BME280;50528;48.514;14.394;2023-04-28T00:00:14;93980.40;;;3.51;65.68
64211;BME280;50528;48.514;14.394;2023-04-28T00:01:07;93979.80;;;3.48;65.62
64211;BME280;50528;48.514;14.394;2023-04-28T00:01:41;93977.92;;;3.48;65.59
64211;BME280;50528;48.514;14.394;2023-04-28T00:02:15;93963.25;;;3.37;65.63
64211;BME280;50528;48.514;14.394;2023-04-28T00:02:49;93979.21;;;3.47;65.62
64211;BME280;50528;48.514;14.394;2023-04-28T00:03:22;93978.45;;;3.46;65.52
64211;BME280;50528;48.514;14.394;2023-04-28T00:03:56;93980.67;;;3.45;65.53
64211;BME280;50528;48.514;14.394;2023-04-28T00:04:31;93976.75;;;3.45;65.57
64211;BME280;50528;48.514;14.394;2023-04-28T00:05:05;93973.44;;;3.42;65.48
64211;BME280;50528;48.514;14.394;2023-04-28T00:05:38;93978.04;;;3.44;65.57
64211;BME280;50528;48.514;14.394;2023-04-28T00:06:13;93978.31;;;3.43;65.48
64211;BME280;50528;48.514;14.394;2023-04-28T00:06:46;93978.19;;;3.43;65.48
64211;BME280;50528;48.514;14.394;2023-04-28T00:07:20;93970.15;;;3.38;65.54
64211;BME280;50528;48.514;14.394;2023-04-28T00:07:53;93975.95;;;3.42;65.56
64211;BME280;50528;48.514;14.394;2023-04-28T00:08:27;93976.79;;;3.43;65.62
64211;BME280;50528;48.514;14.394;2023-04-28T00:09:00;93973.83;;;3.42;65.51
64211;BME280;50528;48.514;14.394;2023-04-28T00:09:34;93970.13;;;3.38;65.61
64211;BME280;50528;48.514;14.394;2023-04-28T00:10:08;93971.97;;;3.40;65.69
64211;BME280;50528;48.514;14.394;2023-04-28T00:10:41;93974.64;;;3.40;65.75
64211;BME280;50528;48.514;14.394;2023-04-28T00:11:15;93972.57;;;3.40;65.74
64211;BME280;50528;48.514;14.394;2023-04-28T00:11:52;93969.68;;;3.39;65.87
64211;BME280;50528;48.514;14.394;2023-04-28T00:12:28;93972.31;;;3.38;65.86
64211;BME280;50528;48.514;14.394;2023-04-28T00:13:02;93971.11;;;3.37;65.94
64211;BME280;50528;48.514;14.394;2023-04-28T00:13:36;93972.64;;;3.37;66.02
64211;BME280;50528;48.514;14.394;2023-04-28T00:14:09;93972.04;;;3.37;66.04
64211;BME280;50528;48.514;14.394;2023-04-28T00:14:43;93970.75;;;3.36;66.14
64211;BME280;50528;48.514;14.394;2023-04-28T00:15:16;93969.21;;;3.37;66.21
64211;BME280;50528;48.514;14.394;2023-04-28T00:15:50;93972.05;;;3.36;66.30
64211;BME280;50528;48.514;14.394;2023-04-28T00:16:25;93972.13;;;3.35;66.37
64211;BME280;50528;48.514;14.394;2023-04-28T00:16:58;93969.36;;;3.32;66.42
64211;BME280;50528;48.514;14.394;2023-04-28T00:17:32;93968.89;;;3.33;66.48
64211;BME280;50528;48.514;14.394;2023-04-28T00:18:06;93969.27;;;3.32;66.35
64211;BME280;50528;48.514;14.394;2023-04-28T00:18:40;93972.90;;;3.30;66.25
64211;BME280;50528;48.514;14.394;2023-04-28T00:19:13;93972.76;;;3.29;66.31
64211;BME280;50528;48.514;14.394;2023-04-28T00:19:46;93973.55;;;3.29;66.24
64211;BME280;50528;48.514;14.394;2023-04-28T00:20:21;93974.20;;;3.28;66.23
64211;BME280;50528;48.514;14.394;2023-04-28T00:20:55;93972.20;;;3.28;66.21
64211;BME280;50528;48.514;14.394;2023-04-28T00:21:28;93973.04;;;3.27;66.27
64211;BME280;50528;48.514;14.394;2023-04-28T00:22:02;93975.18;;;3.25;66.19
64211;BME280;50528;48.514;14.394;2023-04-28T00:22:37;93972.76;;;3.23;66.18
64211;BME280;50528;48.514;14.394;2023-04-28T00:23:10;93973.72;;;3.23;66.17
64211;BME280;50528;48.514;14.394;2023-04-28T00:23:43;93974.52;;;3.21;66.15
64211;BME280;50528;48.514;14.394;2023-04-28T00:24:17;93974.38;;;3.20;66.17
64211;BME280;50528;48.514;14.394;2023-04-28T00:24:51;93971.38;;;3.20;66.13
64211;BME280;50528;48.514;14.394;2023-04-28T00:25:24;93973.30;;;3.18;66.20
64211;BME280;50528;48.514;14.394;2023-04-28T00:25:58;93968.91;;;3.15;66.22
64211;BME280;50528;48.514;14.394;2023-04-28T00:26:32;93967.31;;;3.16;66.29
64211;BME280;50528;48.514;14.394;2023-04-28T00:27:05;93972.06;;;3.15;66.24
64211;BME280;50528;48.514;14.394;2023-04-28T00:27:39;93968.23;;;3.16;66.23
64211;BME280;50528;48.514;14.394;2023-04-28T00:28:13;93968.98;;;3.15;66.28
64211;BME280;50528;48.514;14.394;2023-04-28T00:29:02;93967.51;;;3.12;66.35
64211;BME280;50528;48.514;14.394;2023-04-28T00:29:36;93970.34;;;3.12;66.32
64211;BME280;50528;48.514;14.394;2023-04-28T00:30:10;93970.25;;;3.11;66.42
64211;BME280;50528;48.514;14.394;2023-04-28T00:30:43;93964.67;;;3.10;66.48
64211;BME280;50528;48.514;14.394;2023-04-28T00:31:17;93966.47;;;3.11;66.60
64211;BME280;50528;48.514;14.394;2023-04-28T00:31:50;93966.63;;;3.11;66.66
64211;BME280;50528;48.514;14.394;2023-04-28T00:32:23;93964.88;;;3.11;66.74
64211;BME280;50528;48.514;14.394;2023-04-28T00:32:57;93965.87;;;3.11;66.87
64211;BME280;50528;48.514;14.394;2023-04-28T00:33:30;93964.54;;;3.12;66.93
64211;BME280;50528;48.514;14.394;2023-04-28T00:34:04;93962.50;;;3.12;67.19
64211;BME280;50528;48.514;14.394;2023-04-28T00:34:37;93962.23;;;3.14;67.18
64211;BME280;50528;48.514;14.394;2023-04-28T00:35:11;93964.39;;;3.15;67.23
64211;BME280;50528;48.514;14.394;2023-04-28T00:35:44;93964.31;;;3.15;67.29
64211;BME280;50528;48.514;14.394;2023-04-28T00:36:18;93964.15;;;3.15;67.40
64211;BME280;50528;48.514;14.394;2023-04-28T00:36:51;93963.76;;;3.16;67.36
64211;BME280;50528;48.514;14.394;2023-04-28T00:37:26;93960.99;;;3.13;67.57
64211;BME280;50528;48.514;14.394;2023-04-28T00:38:00;93960.59;;;3.13;67.53
64211;BME280;50528;48.514;14.394;2023-04-28T00:38:33;93964.44;;;3.16;67.50
64211;BME280;50528;48.514;14.394;2023-04-28T00:39:09;93962.98;;;3.15;67.51
64211;BME280;50528;48.514;14.394;2023-04-28T00:39:43;93959.52;;;3.14;67.46
64211;BME280;50528;48.514;14.394;2023-04-28T00:40:19;93962.52;;;3.16;67.42
64211;BME280;50528;48.514;14.394;2023-04-28T00:40:53;93959.16;;;3.15;67.41
64211;BME280;50528;48.514;14.394;2023-04-28T00:41:26;93959.64;;;3.15;67.37
64211;BME280;50528;48.514;14.394;2023-04-28T00:42:01;93959.08;;;3.16;67.35
64211;BME280;50528;48.514;14.394;2023-04-28T00:42:38;93959.32;;;3.15;67.32
64211;BME280;50528;48.514;14.394;2023-04-28T00:43:12;93961.27;;;3.15;67.30
64211;BME280;50528;48.514;14.394;2023-04-28T00:43:48;93960.01;;;3.17;67.38
64211;BME280;50528;48.514;14.394;2023-04-28T00:44:23;93958.23;;;3.17;67.37
64211;BME280;50528;48.514;14.394;2023-04-28T00:44:56;93958.25;;;3.17;67.33
64211;BME280;50528;48.514;14.394;2023-04-28T00:45:30;93959.41;;;3.17;67.33
64211;BME280;50528;48.514;14.394;2023-04-28T00:46:04;93959.02;;;3.18;67.40
64211;BME280;50528;48.514;14.394;2023-04-28T00:46:38;93956.25;;;3.15;67.43
64211;BME280;50528;48.514;14.394;2023-04-28T00:47:12;93947.30;;;3.09;67.35
64211;BME280;50528;48.514;14.394;2023-04-28T00:47:45;93957.98;;;3.17;67.35
64211;BME280;50528;48.514;14.394;2023-04-28T00:48:19;93956.89;;;3.18;67.48
64211;BME280;50528;48.514;14.394;2023-04-28T00:48:53;93957.64;;;3.19;67.47
64211;BME280;50528;48.514;14.394;2023-04-28T00:49:26;93958.64;;;3.19;67.47
64211;BME280;50528;48.514;14.394;2023-04-28T00:50:00;93958.23;;;3.19;67.53
64211;BME280;50528;48.514;14.394;2023-04-28T00:50:35;93954.48;;;3.18;67.63
64211;BME280;50528;48.514;14.394;2023-04-28T00:51:09;93957.23;;;3.20;67.59
64211;BME280;50528;48.514;14.394;2023-04-28T00:51:43;93955.68;;;3.20;67.58
64211;BME280;50528;48.514;14.394;2023-04-28T00:52:17;93953.96;;;3.20;67.61
64211;BME280;50528;48.514;14.394;2023-04-28T00:52:51;93956.33;;;3.21;67.73
64211;BME280;50528;48.514;14.394;2023-04-28T00:53:25;93955.21;;;3.21;67.76
64211;BME280;50528;48.514;14.394;2023-04-28T00:53:59;93957.33;;;3.22;67.77
64211;BME280;50528;48.514;14.394;2023-04-28T00:54:33;93955.73;;;3.23;67.74
64211;BME280;50528;48.514;14.394;2023-04-28T00:55:08;93953.93;;;3.23;67.73
64211;BME280;50528;48.514;14.394;2023-04-28T00:55:41;93952.50;;;3.24;67.72
64211;BME280;50528;48.514;14.394;2023-04-28T00:56:15;93957.14;;;3.24;67.77
64211;BME280;50528;48.514;14.394;2023-04-28T00:56:49;93955.48;;;3.24;67.79
64211;BME280;50528;48.514;14.394;2023-04-28T00:57:24;93956.20;;;3.24;67.83
64211;BME280;50528;48.514;14.394;2023-04-28T00:57:58;93955.25;;;3.25;67.88
64211;BME280;50528;48.514;14.394;2023-04-28T00:58:33;93956.20;;;3.25;67.81
64211;BME280;50528;48.514;14.394;2023-04-28T00:59:07;93954.37;;;3.24;67.80
64211;BME280;50528;48.514;14.394;2023-04-28T00:59:41;93955.85;;;3.26;67.77
64211;BME280;50528;48.514;14.394;2023-04-28T01:00:14;93956.05;;;3.24;67.77
64211;BME280;50528;48.514;14.394;2023-04-28T01:00:48;93958.05;;;3.26;67.70
64211;BME280;50528;48.514;14.394;2023-04-28T01:01:21;93960.25;;;3.26;67.73
64211;BME280;50528;48.514;14.394;2023-04-28T01:01:55;93958.73;;;3.26;67.65
64211;BME280;50528;48.514;14.394;2023-04-28T01:02:30;93958.41;;;3.26;67.53
64211;BME280;50528;48.514;14.394;2023-04-28T01:03:04;93959.16;;;3.25;67.50
64211;BME280;50528;48.514;14.394;2023-04-28T01:03:40;93958.88;;;3.25;67.54
64211;BME280;50528;48.514;14.394;2023-04-28T01:04:16;93960.23;;;3.25;67.37
64211;BME280;50528;48.514;14.394;2023-04-28T01:04:55;93963.64;;;3.24;67.45
64211;BME280;50528;48.514;14.394;2023-04-28T01:05:29;93959.97;;;3.23;67.40
64211;BME280;50528;48.514;14.394;2023-04-28T01:06:05;93957.85;;;3.22;67.47
64211;BME280;50528;48.514;14.394;2023-04-28T01:06:40;93961.13;;;3.23;67.38
64211;BME280;50528;48.514;14.394;2023-04-28T01:07:14;93956.96;;;3.21;67.53
64211;BME280;50528;48.514;14.394;2023-04-28T01:07:50;93955.54;;;3.22;67.44
64211;BME280;50528;48.514;14.394;2023-04-28T01:08:27;93954.09;;;3.21;67.46
64211;BME280;50528;48.514;14.394;2023-04-28T01:09:02;93953.24;;;3.20;67.41
64211;BME280;50528;48.514;14.394;2023-04-28T01:09:37;93951.73;;;3.18;67.35
64211;BME280;50528;48.514;14.394;2023-04-28T01:10:11;93954.13;;;3.18;67.35
64211;BME280;50528;48.514;14.394;2023-04-28T01:10:44;93952.10;;;3.18;67.19
64211;BME280;50528;48.514;14.394;2023-04-28T01:11:27;93951.48;;;3.14;67.09
64211;BME280;50528;48.514;14.394;2023-04-28T01:12:15;93947.89;;;3.10;67.02
64211;BME280;50528;48.514;14.394;2023-04-28T01:12:51;93950.55;;;3.08;67.07
64211;BME280;50528;48.514;14.394;2023-04-28T01:13:25;93954.63;;;3.07;67.00
64211;BME280;50528;48.514;14.394;2023-04-28T01:13:59;93950.60;;;3.06;66.99
64211;BME280;50528;48.514;14.394;2023-04-28T01:14:34;93952.68;;;3.06;67.01
64211;BME280;50528;48.514;14.394;2023-04-28T01:15:18;93950.28;;;3.06;66.97
64211;BME280;50528;48.514;14.394;2023-04-28T01:15:56;93948.29;;;3.05;67.04
64211;BME280;50528;48.514;14.394;2023-04-28T01:16:30;93946.38;;;3.04;67.05
64211;BME280;50528;48.514;14.394;2023-04-28T01:17:05;93948.80;;;3.04;67.02
64211;BME280;50528;48.514;14.394;2023-04-28T01:17:40;93949.32;;;3.04;67.15
64211;BME280;50528;48.514;14.394;2023-04-28T01:18:15;93947.24;;;3.03;67.23
64211;BME280;50528;48.514;14.394;2023-04-28T01:18:49;93948.55;;;3.03;67.21
64211;BME280;50528;48.514;14.394;2023-04-28T01:19:22;93946.80;;;3.04;67.21
64211;BME280;50528;48.514;14.394;2023-04-28T01:19:56;93946.01;;;3.03;67.17
64211;BME280;50528;48.514;14.394;2023-04-28T01:20:30;93945.40;;;3.02;67.12
64211;BME280;50528;48.514;14.394;2023-04-28T01:21:04;93945.95;;;3.02;67.09
64211;BME280;50528;48.514;14.394;2023-04-28T01:21:38;93945.08;;;3.01;67.14
64211;BME280;50528;48.514;14.394;2023-04-28T01:22:20;93946.00;;;2.99;66.97
64211;BME280;50528;48.514;14.394;2023-04-28T01:22:53;93941.44;;;2.97;67.01
64211;BME280;50528;48.514;14.394;2023-04-28T01:23:27;93940.55;;;2.96;66.99
64211;BME280;50528;48.514;14.394;2023-04-28T01:24:00;93939.86;;;2.94;67.02
64211;BME280;50528;48.514;14.394;2023-04-28T01:24:34;93934.64;;;2.93;67.05
64211;BME280;50528;48.514;14.394;2023-04-28T01:25:10;93934.59;;;2.95;67.02
64211;BME280;50528;48.514;14.394;2023-04-28T01:25:43;93933.36;;;2.95;67.02
64211;BME280;50528;48.514;14.394;2023-04-28T01:26:17;93931.23;;;2.96;67.00
64211;BME280;50528;48.514;14.394;2023-04-28T01:26:50;93932.84;;;2.95;67.10
64211;BME280;50528;48.514;14.394;2023-04-28T01:27:23;93929.13;;;2.96;67.13
64211;BME280;50528;48.514;14.394;2023-04-28T01:27:57;93928.56;;;2.95;67.23
64211;BME280;50528;48.514;14.394;2023-04-28T01:28:30;93932.83;;;2.95;67.19
64211;BME280;50528;48.514;14.394;2023-04-28T01:29:04;93932.31;;;2.95;67.24
64211;BME280;50528;48.514;14.394;2023-04-28T01:29:37;93930.52;;;2.96;67.27
64211;BME280;50528;48.514;14.394;2023-04-28T01:30:11;93926.77;;;2.97;67.29
64211;BME280;50528;48.514;14.394;2023-04-28T01:30:44;93924.17;;;2.95;67.28
64211;BME280;50528;48.514;14.394;2023-04-28T01:31:18;93926.06;;;2.97;67.26
64211;BME280;50528;48.514;14.394;2023-04-28T01:31:52;93928.10;;;2.97;67.35
64211;BME280;50528;48.514;14.394;2023-04-28T01:32:26;93915.11;;;2.91;67.32
64211;BME280;50528;48.514;14.394;2023-04-28T01:33:01;93912.71;;;2.92;67.39
64211;BME280;50528;48.514;14.394;2023-04-28T01:33:35;93920.46;;;2.97;67.41
64211;BME280;50528;48.514;14.394;2023-04-28T01:34:09;93923.31;;;2.98;67.39
64211;BME280;50528;48.514;14.394;2023-04-28T01:34:43;93919.84;;;2.98;67.51
64211;BME280;50528;48.514;14.394;2023-04-28T01:35:17;93920.52;;;2.98;67.44
64211;BME280;50528;48.514;14.394;2023-04-28T01:35:50;93919.00;;;2.98;67.50
64211;BME280;50528;48.514;14.394;2023-04-28T01:36:24;93900.90;;;2.87;67.51
64211;BME280;50528;48.514;14.394;2023-04-28T01:36:59;93915.48;;;2.97;67.68
64211;BME280;50528;48.514;14.394;2023-04-28T01:37:34;93917.85;;;2.99;67.62
64211;BME280;50528;48.514;14.394;2023-04-28T01:38:07;93919.01;;;2.99;67.70
64211;BME280;50528;48.514;14.394;2023-04-28T01:38:40;93919.88;;;3.01;67.76
64211;BME280;50528;48.514;14.394;2023-04-28T01:39:14;93918.31;;;3.01;67.85
64211;BME280;50528;48.514;14.394;2023-04-28T01:39:47;93916.68;;;3.01;67.92
64211;BME280;50528;48.514;14.394;2023-04-28T01:40:20;93919.98;;;3.02;67.87
64211;BME280;50528;48.514;14.394;2023-04-28T01:40:54;93919.59;;;3.03;67.90
64211;BME280;50528;48.514;14.394;2023-04-28T01:41:28;93918.00;;;3.02;68.01
64211;BME280;50528;48.514;14.394;2023-04-28T01:42:02;93920.23;;;3.04;68.06
64211;BME280;50528;48.514;14.394;2023-04-28T01:42:36;93914.33;;;3.02;68.15
64211;BME280;50528;48.514;14.394;2023-04-28T01:43:09;93920.80;;;3.05;68.11
64211;BME280;50528;48.514;14.394;2023-04-28T01:43:43;93922.00;;;3.05;68.14
64211;BME280;50528;48.514;14.394;2023-04-28T01:44:16;93917.33;;;3.05;68.16
64211;BME280;50528;48.514;14.394;2023-04-28T01:44:53;93919.01;;;3.04;68.18
64211;BME280;50528;48.514;14.394;2023-04-28T01:45:26;93922.28;;;3.05;68.12
64211;BME280;50528;48.514;14.394;2023-04-28T01:46:00;93921.23;;;3.03;68.04
64211;BME280;50528;48.514;14.394;2023-04-28T01:46:33;93918.31;;;3.01;67.96
64211;BME280;50528;48.514;14.394;2023-04-28T01:47:09;93920.04;;;2.99;67.90
64211;BME280;50528;48.514;14.394;2023-04-28T01:47:42;93916.84;;;2.99;67.93
64211;BME280;50528;48.514;14.394;2023-04-28T01:48:18;93910.04;;;2.94;67.92
64211;BME280;50528;48.514;14.394;2023-04-28T01:48:51;93920.27;;;2.97;67.84
64211;BME280;50528;48.514;14.394;2023-04-28T01:50:41;93915.83;;;2.90;67.72
64211;BME280;50528;48.514;14.394;2023-04-28T01:51:15;93919.09;;;2.85;67.54
64211;BME280;50528;48.514;14.394;2023-04-28T01:51:49;93914.73;;;2.82;67.63
64211;BME280;50528;48.514;14.394;2023-04-28T01:52:22;93909.83;;;2.79;67.58
64211;BME280;50528;48.514;14.394;2023-04-28T01:52:57;93913.50;;;2.84;67.57
64211;BME280;50528;48.514;14.394;2023-04-28T01:53:32;93916.98;;;2.84;67.71
64211;BME280;50528;48.514;14.394;2023-04-28T01:54:05;93918.85;;;2.84;67.71
64211;BME280;50528;48.514;14.394;2023-04-28T01:54:39;93915.25;;;2.84;67.76
64211;BME280;50528;48.514;14.394;2023-04-28T01:55:13;93915.05;;;2.84;67.85
64211;BME280;50528;48.514;14.394;2023-04-28T01:55:47;93903.90;;;2.76;67.91
64211;BME280;50528;48.514;14.394;2023-04-28T01:56:21;93920.82;;;2.85;68.00
64211;BME280;50528;48.514;14.394;2023-04-28T01:56:55;93922.24;;;2.84;68.09
64211;BME280;50528;48.514;14.394;2023-04-28T01:57:29;93922.65;;;2.85;68.16
64211;BME280;50528;48.514;14.394;2023-04-28T01:58:03;93923.85;;;2.86;68.25
64211;BME280;50528;48.514;14.394;2023-04-28T01:58:36;93926.39;;;2.87;68.31
64211;BME280;50528;48.514;14.394;2023-04-28T01:59:10;93922.52;;;2.88;68.35
64211;BME280;50528;48.514;14.394;2023-04-28T01:59:43;93925.73;;;2.88;68.41
64211;BME280;50528;48.514;14.394;2023-04-28T02:00:17;93930.92;;;2.90;68.43
64211;BME280;50528;48.514;14.394;2023-04-28T02:00:53;93927.80;;;2.90;68.49
64211;BME280;50528;48.514;14.394;2023-04-28T02:01:27;93928.29;;;2.90;68.56
64211;BME280;50528;48.514;14.394;2023-04-28T02:02:00;93929.41;;;2.91;68.63
64211;BME280;50528;48.514;14.394;2023-04-28T02:02:38;93927.70;;;2.92;68.63
64211;BME280;50528;48.514;14.394;2023-04-28T02:03:11;93927.54;;;2.92;68.66
64211;BME280;50528;48.514;14.394;2023-04-28T02:03:45;93923.66;;;2.93;68.68
64211;BME280;50528;48.514;14.394;2023-04-28T02:04:20;93922.46;;;2.94;68.80
64211;BME280;50528;48.514;14.394;2023-04-28T02:04:54;93921.49;;;2.95;68.75
64211;BME280;50528;48.514;14.394;2023-04-28T02:05:28;93919.85;;;2.95;68.69
64211;BME280;50528;48.514;14.394;2023-04-28T02:06:01;93923.17;;;2.97;68.68
64211;BME280;50528;48.514;14.394;2023-04-28T02:06:34;93922.23;;;2.97;68.66
64211;BME280;50528;48.514;14.394;2023-04-28T02:07:12;93919.75;;;2.98;68.62
64211;BME280;50528;48.514;14.394;2023-04-28T02:07:46;93922.14;;;2.98;68.52
64211;BME280;50528;48.514;14.394;2023-04-28T02:08:20;93920.88;;;2.98;68.61
64211;BME280;50528;48.514;14.394;2023-04-28T02:08:56;93921.15;;;2.99;68.51
64211;BME280;50528;48.514;14.394;2023-04-28T02:09:32;93922.32;;;2.99;68.47
64211;BME280;50528;48.514;14.394;2023-04-28T02:10:07;93922.60;;;3.00;68.48
64211;BME280;50528;48.514;14.394;2023-04-28T02:10:40;93923.59;;;3.00;68.56
64211;BME280;50528;48.514;14.394;2023-04-28T02:11:14;93919.13;;;3.00;68.51
64211;BME280;50528;48.514;14.394;2023-04-28T02:11:48;93922.92;;;3.00;68.47
64211;BME280;50528;48.514;14.394;2023-04-28T02:12:21;93923.48;;;3.00;68.38
64211;BME280;50528;48.514;14.394;2023-04-28T02:12:55;93917.80;;;2.99;68.37
64211;BME280;50528;48.514;14.394;2023-04-28T02:13:29;93917.05;;;3.00;68.49
64211;BME280;50528;48.514;14.394;2023-04-28T02:14:02;93914.25;;;3.00;68.56
64211;BME280;50528;48.514;14.394;2023-04-28T02:14:36;93916.69;;;3.00;68.50
64211;BME280;50528;48.514;14.394;2023-04-28T02:15:10;93915.69;;;2.99;68.53
64211;BME280;50528;48.514;14.394;2023-04-28T02:15:43;93915.03;;;3.01;68.58
64211;BME280;50528;48.514;14.394;2023-04-28T02:16:18;93915.30;;;3.01;68.65
64211;BME280;50528;48.514;14.394;2023-04-28T02:16:51;93918.48;;;3.01;68.70
64211;BME280;50528;48.514;14.394;2023-04-28T02:17:25;93916.39;;;3.01;68.72
64211;BME280;50528;48.514;14.394;2023-04-28T02:18:02;93915.00;;;3.01;68.68
64211;BME280;50528;48.514;14.394;2023-04-28T02:18:35;93915.80;;;3.01;68.79
64211;BME280;50528;48.514;14.394;2023-04-28T02:19:09;93917.06;;;3.01;68.81
64211;BME280;50528;48.514;14.394;2023-04-28T02:19:42;93916.19;;;3.01;68.93
64211;BME280;50528;48.514;14.394;2023-04-28T02:20:18;93915.20;;;3.02;68.89
64211;BME280;50528;48.514;14.394;2023-04-28T02:20:51;93914.20;;;3.01;68.84
64211;BME280;50528;48.514;14.394;2023-04-28T02:21:24;93911.72;;;3.02;68.85
64211;BME280;50528;48.514;14.394;2023-04-28T02:21:58;93911.63;;;3.01;68.76
64211;BME280;50528;48.514;14.394;2023-04-28T02:22:32;93912.44;;;3.01;68.76
64211;BME280;50528;48.514;14.394;2023-04-28T02:23:05;93910.25;;;3.00;68.79
64211;BME280;50528;48.514;14.394;2023-04-28T02:23:39;93908.72;;;3.01;68.86
64211;BME280;50528;48.514;14.394;2023-04-28T02:24:13;93909.96;;;3.01;68.86
64211;BME280;50528;48.514;14.394;2023-04-28T02:24:50;93903.62;;;2.99;68.85
64211;BME280;50528;48.514;14.394;2023-04-28T02:25:23;93906.67;;;3.01;68.93
64211;BME280;50528;48.514;14.394;2023-04-28T02:26:01;93908.08;;;3.00;69.01
64211;BME280;50528;48.514;14.394;2023-04-28T02:26:36;93909.04;;;3.01;69.02
64211;BME280;50528;48.514;14.394;2023-04-28T02:27:09;93911.95;;;3.01;69.10
64211;BME280;50528;48.514;14.394;2023-04-28T02:27:43;93910.84;;;3.02;69.10
64211;BME280;50528;48.514;14.394;2023-04-28T02:28:16;93911.04;;;3.02;69.12
64211;BME280;50528;48.514;14.394;2023-04-28T02:28:50;93909.20;;;3.03;69.22
64211;BME280;50528;48.514;14.394;2023-04-28T02:29:25;93897.46;;;2.96;69.26
64211;BME280;50528;48.514;14.394;2023-04-28T02:29:58;93909.41;;;3.04;69.23
64211;BME280;50528;48.514;14.394;2023-04-28T02:30:32;93908.17;;;3.04;69.25
64211;BME280;50528;48.514;14.394;2023-04-28T02:31:07;93908.02;;;3.05;69.25
64211;BME280;50528;48.514;14.394;2023-04-28T02:31:41;93909.77;;;3.06;69.35
64211;BME280;50528;48.514;14.394;2023-04-28T02:32:15;93910.25;;;3.07;69.44
64211;BME280;50528;48.514;14.394;2023-04-28T02:32:49;93910.64;;;3.08;69.39
64211;BME280;50528;48.514;14.394;2023-04-28T02:33:22;93907.45;;;3.08;69.42
64211;BME280;50528;48.514;14.394;2023-04-28T02:33:56;93912.41;;;3.08;69.43
64211;BME280;50528;48.514;14.394;2023-04-28T02:34:30;93913.37;;;3.09;69.45
64211;BME280;50528;48.514;14.394;2023-04-28T02:35:04;93917.36;;;3.09;69.35
64211;BME280;50528;48.514;14.394;2023-04-28T02:35:38;93914.84;;;3.08;69.37
64211;BME280;50528;48.514;14.394;2023-04-28T02:36:12;93920.92;;;3.07;69.21
64211;BME280;50528;48.514;14.394;2023-04-28T02:36:45;93916.61;;;3.06;69.17
64211;BME280;50528;48.514;14.394;2023-04-28T02:37:20;93919.12;;;3.04;69.22
64211;BME280;50528;48.514;14.394;2023-04-28T02:37:54;93921.19;;;3.02;69.12
64211;BME280;50528;48.514;14.394;2023-04-28T02:38:28;93920.03;;;3.01;69.23
64211;BME280;50528;48.514;14.394;2023-04-28T02:39:01;93920.96;;;3.00;69.10
64211;BME280;50528;48.514;14.394;2023-04-28T02:39:35;93922.80;;;2.99;69.05
64211;BME280;50528;48.514;14.394;2023-04-28T02:40:09;93910.64;;;2.90;69.02
64211;BME280;50528;48.514;14.394;2023-04-28T02:40:42;93922.79;;;2.98;69.08
64211;BME280;50528;48.514;14.394;2023-04-28T02:41:16;93924.88;;;2.99;69.13
64211;BME280;50528;48.514;14.394;2023-04-28T02:41:50;93927.27;;;2.98;69.26
64211;BME280;50528;48.514;14.394;2023-04-28T02:42:24;93913.83;;;2.93;69.15
64211;BME280;50528;48.514;14.394;2023-04-28T02:42:58;93924.75;;;2.98;69.29
64211;BME280;50528;48.514;14.394;2023-04-28T02:43:32;93920.35;;;2.94;69.23
64211;BME280;50528;48.514;14.394;2023-04-28T02:44:06;93922.38;;;2.97;69.22
64211;BME280;50528;48.514;14.394;2023-04-28T02:44:39;93925.34;;;2.97;69.18
64211;BME280;50528;48.514;14.394;2023-04-28T02:45:13;93923.27;;;2.96;69.13
64211;BME280;50528;48.514;14.394;2023-04-28T02:45:46;93925.09;;;2.95;69.06
64211;BME280;50528;48.514;14.394;2023-04-28T02:46:20;93925.09;;;2.95;68.99
64211;BME280;50528;48.514;14.394;2023-04-28T02:46:53;93924.05;;;2.95;68.93
64211;BME280;50528;48.514;14.394;2023-04-28T02:47:28;93923.23;;;2.94;68.87
64211;BME280;50528;48.514;14.394;2023-04-28T02:48:02;93922.78;;;2.93;68.86
64211;BME280;50528;48.514;14.394;2023-04-28T02:48:36;93923.06;;;2.92;68.88
64211;BME280;50528;48.514;14.394;2023-04-28T02:49:10;93920.42;;;2.91;68.84
64211;BME280;50528;48.514;14.394;2023-04-28T02:49:44;93918.26;;;2.90;68.83
64211;BME280;50528;48.514;14.394;2023-04-28T02:50:18;93916.59;;;2.88;68.88
64211;BME280;50528;48.514;14.394;2023-04-28T02:50:52;93914.98;;;2.88;68.86
64211;BME280;50528;48.514;14.394;2023-04-28T02:51:25;93913.39;;;2.89;69.01
64211;BME280;50528;48.514;14.394;2023-04-28T02:51:59;93909.80;;;2.88;69.07
64211;BME280;50528;48.514;14.394;2023-04-28T02:52:33;93907.05;;;2.86;69.04
64211;BME280;50528;48.514;14.394;2023-04-28T02:53:06;93911.55;;;2.88;69.12
64211;BME280;50528;48.514;14.394;2023-04-28T02:53:39;93910.99;;;2.89;69.20
64211;BME280;50528;48.514;14.394;2023-04-28T02:54:13;93908.11;;;2.89;69.20
64211;BME280;50528;48.514;14.394;2023-04-28T02:54:47;93904.36;;;2.91;69.31
64211;BME280;50528;48.514;14.394;2023-04-28T02:55:21;93908.40;;;2.91;69.37
64211;BME280;50528;48.514;14.394;2023-04-28T02:55:56;93907.52;;;2.92;69.49
64211;BME280;50528;48.514;14.394;2023-04-28T02:56:30;93907.33;;;2.92;69.49
64211;BME280;50528;48.514;14.394;2023-04-28T02:57:04;93905.94;;;2.93;69.56
64211;BME280;50528;48.514;14.394;2023-04-28T02:57:37;93902.54;;;2.94;69.69
64211;BME280;50528;48.514;14.394;2023-04-28T02:58:11;93904.40;;;2.96;69.73
64211;BME280;50528;48.514;14.394;2023-04-28T02:58:44;93904.81;;;2.98;69.85
64211;BME280;50528;48.514;14.394;2023-04-28T02:59:18;93904.41;;;2.98;69.92
64211;BME280;50528;48.514;14.394;2023-04-28T02:59:51;93905.86;;;2.99;69.91
64211;BME280;50528;48.514;14.394;2023-04-28T03:00:25;93906.30;;;3.00;70.07
64211;BME280;50528;48.514;14.394;2023-04-28T03:00:58;93904.45;;;3.01;70.01
64211;BME280;50528;48.514;14.394;2023-04-28T03:01:32;93905.04;;;3.01;70.16
64211;BME280;50528;48.514;14.394;2023-04-28T03:02:05;93906.48;;;3.02;70.27
64211;BME280;50528;48.514;14.394;2023-04-28T03:02:39;93903.98;;;3.03;70.37